Time;durP1;ratioP1;P1;durP2;ratioP2;P2;SDS_P1;SDS_P2;PMS_P1;PMS_P2;Temp;Humidity;BMP_temperature;BMP_pressure;BME280_temperature;BME280_humidity;BME280_pressure;Samples;Min_cycle;Max_cycle;Signal;HPM_P1;HPM_P2
2023/01/12 00:02:36;;;;;;;3.98;3.02;;;;;;;-1.60;46.11;103079.34;1712326;84;20967;-86
2023/01/12 00:12:38;;;;;;;2.72;2.37;;;;;;;-1.56;51.93;103141.91;1712070;84;20954;-86
2023/01/12 00:19:20;;;;;;;3.33;2.50;;;;;;;-1.49;62.34;103313.03;1712300;84;21019;-86
2023/01/12 00:25:35;;;;;;;4.08;3.15;;;;;;;-1.47;65.03;103368.31;1712066;84;20991;-86
2023/01/12 00:32:02;;;;;;;5.30;2.40;;;;;;;-1.56;51.93;103152.31;1712304;84;20991;-85
2023/01/12 00:38:32;;;;;;;4.80;2.72;;;;;;;-1.71;28.39;102856.83;1712303;84;20943;-85
2023/01/12 00:51:45;;;;;;;3.37;2.60;;;;;;;-1.74;24.21;102820.09;1712471;84;21434;-86
2023/01/12 00:58:13;;;;;;;4.95;3.10;;;;;;;-1.73;25.70;102858.88;1712266;84;20982;-86
2023/01/12 01:04:40;;;;;;;7.33;3.05;;;;;;;-1.89;0.00;102527.36;1712284;84;20914;-85
2023/01/12 01:11:06;;;;;;;;;;;;;;;-2.00;0.00;102275.62;1670605;84;20992;-87
2023/01/12 01:17:33;;;;;;;7.20;3.20;;;;;;;-2.17;0.00;101881.27;1668828;86;21009;-85
2023/01/12 01:20:03;;;;;;;10.63;3.12;;;;;;;-2.28;0.00;101647.20;1670242;85;20983;-87
2023/01/12 01:26:30;;;;;;;7.50;3.12;;;;;;;-2.35;0.00;101528.27;1670391;86;20944;-87
2023/01/12 01:32:57;;;;;;;5.80;3.08;;;;;;;-2.45;0.00;101277.73;1669886;86;20940;-85
2023/01/12 01:39:24;;;;;;;6.87;2.62;;;;;;;-2.54;0.00;101095.20;1670351;86;20986;-86
2023/01/12 01:46:07;;;;;;;5.28;2.75;;;;;;;-2.65;0.00;100866.58;1663964;86;20956;-85
2023/01/12 01:52:37;;;;;;;7.95;3.10;;;;;;;-2.78;0.00;100567.89;1674925;86;21447;-84
2023/01/12 01:59:17;;;;;;;5.97;3.20;;;;;;;-2.83;0.00;100436.36;1730203;83;20950;-86
2023/01/12 02:05:47;;;;;;;9.98;3.27;;;;;;;-2.91;0.00;100239.63;1730213;83;20922;-86
2023/01/12 02:22:36;;;;;;;7.33;3.37;;;;;;;-3.25;0.00;99420.69;1730227;83;20946;-85
2023/01/12 02:29:32;;;;;;;7.83;3.98;;;;;;;-3.38;0.00;99116.14;1730223;83;20930;-85
2023/01/12 02:35:56;;;;;;;7.37;3.47;;;;;;;-3.47;0.00;98923.58;1730215;83;20176;-86
2023/01/12 02:42:53;;;;;;;9.70;4.35;;;;;;;-3.49;0.00;98867.23;1730203;83;20922;-86
2023/01/12 02:49:20;;;;;;;11.10;4.28;;;;;;;-3.16;0.00;99676.80;1730196;83;21425;-86
2023/01/12 02:55:48;;;;;;;8.20;4.10;;;;;;;-2.92;0.00;100211.00;1730195;83;20982;-86
2023/01/12 03:02:07;;;;;;;9.13;3.62;;;;;;;-2.83;0.00;100399.86;1729943;83;20917;-87
2023/01/12 03:08:38;;;;;;;10.10;3.72;;;;;;;-2.65;0.00;100840.50;1729980;83;20993;-87
2023/01/12 03:14:22;;;;;;;11.73;4.50;;;;;;;-2.50;0.00;101173.66;1705209;83;21034;-88
2023/01/12 03:16:54;;;;;;;9.50;4.50;;;;;;;-2.46;0.00;101258.83;1714855;84;20978;-86
2023/01/12 03:19:32;;;;;;;11.05;4.80;;;;;;;-2.39;0.00;101417.90;1726308;83;21030;-87
2023/01/12 03:22:04;;;;;;;10.45;4.72;;;;;;;-2.32;0.00;101568.11;1701584;83;20993;-86
2023/01/12 03:28:36;;;;;;;9.48;5.12;;;;;;;-2.28;0.00;101636.77;1730184;83;20926;-86
2023/01/12 03:35:04;;;;;;;10.15;4.95;;;;;;;-2.22;0.00;101790.32;1730173;83;20928;-86
2023/01/12 03:37:46;;;;;;;7.62;4.50;;;;;;;-2.25;0.00;101741.16;1729869;83;20973;-86
2023/01/12 03:40:27;;;;;;;9.98;5.08;;;;;;;-2.28;0.00;101642.00;1729988;83;21033;-86
2023/01/12 03:47:01;;;;;;;8.90;4.58;;;;;;;-2.54;0.00;101069.14;1730329;83;21446;-86
2023/01/12 03:53:30;;;;;;;10.50;3.98;;;;;;;-2.73;0.00;100622.02;1730309;83;20934;-86
2023/01/12 03:59:59;;;;;;;8.83;4.30;;;;;;;-3.08;0.00;99762.66;1730285;83;21494;-85
2023/01/12 04:06:26;;;;;;;12.03;4.72;;;;;;;-3.43;0.00;98906.77;1730464;82;20982;-86
2023/01/12 04:08:54;;;;;;;9.90;5.22;;;;;;;-3.62;0.00;98438.42;1730252;83;21038;-85
2023/01/12 04:14:11;;;;;;;12.63;4.10;;;;;;;-3.74;0.00;98146.94;1727006;83;21073;-85
2023/01/12 04:16:40;;;;;;;13.32;4.47;;;;;;;-3.80;0.00;97973.96;1715755;84;20959;-85
2023/01/12 04:23:07;;;;;;;9.00;4.20;;;;;;;-3.90;0.00;97710.38;1712335;84;21517;-87
2023/01/12 04:29:35;;;;;;;15.53;4.90;;;;;;;-4.09;0.00;97277.80;1712320;84;21411;-87
2023/01/12 04:32:05;;;;;;;12.20;4.83;;;;;;;-4.19;0.00;97008.78;1657085;84;20994;-87
2023/01/12 04:38:32;;;;;;;9.45;4.62;;;;;;;-4.25;0.00;96840.74;1712299;84;21050;-85
2023/01/12 04:44:59;;;;;;;12.30;4.65;;;;;;;-4.32;0.00;96661.47;1712319;84;20971;-88
2023/01/12 04:51:27;;;;;;;11.33;4.72;;;;;;;-4.32;0.00;96735.01;1712308;84;20923;-87
2023/01/12 04:57:55;;;;;;;9.60;4.50;;;;;;;-4.33;0.00;96612.81;1712308;84;20964;-87
2023/01/12 05:00:24;;;;;;;15.88;5.40;;;;;;;-4.38;0.00;96492.80;1711932;84;20987;-84
2023/01/12 05:02:59;;;;;;;16.25;5.00;;;;;;;-4.38;0.00;96487.58;1712385;83;20932;-85
2023/01/12 05:05:31;;;;;;;7.97;4.00;;;;;;;-4.40;0.00;96427.73;1712224;84;20935;-86
2023/01/12 05:10:55;;;;;;;15.13;4.58;;;;;;;-4.43;100.00;96339.73;1712554;84;20982;-85
2023/01/12 05:13:29;;;;;;;7.80;4.40;;;;;;;-4.43;100.00;96344.94;1712210;83;20962;-87
2023/01/12 05:16:14;;;;;;;11.05;4.72;;;;;;;-4.42;0.00;96404.92;1726796;83;21049;-85
2023/01/12 05:22:40;;;;;;;7.05;4.03;;;;;;;-4.31;0.00;96683.92;1730251;83;20962;-85
2023/01/12 05:25:11;;;;;;;11.15;4.50;;;;;;;-4.26;0.00;96792.81;1725602;83;20939;-85
2023/01/12 05:27:42;;;;;;;10.15;4.60;;;;;;;-4.22;0.00;96870.21;1730302;83;20914;-86
2023/01/12 05:30:10;;;;;;;12.40;4.65;;;;;;;-4.16;0.00;97022.23;1730091;83;20983;-85
2023/01/12 05:32:44;;;;;;;9.93;4.58;;;;;;;-4.10;0.00;97166.93;1730371;81;20931;-87
2023/01/12 05:35:15;;;;;;;14.53;5.35;;;;;;;-4.11;0.00;97123.93;1703154;83;20930;-87
2023/01/12 05:37:43;;;;;;;13.85;5.45;;;;;;;-4.13;0.00;97091.77;1673357;83;20961;-86
2023/01/12 05:40:16;;;;;;;14.18;5.17;;;;;;;-4.17;0.00;96995.35;1730163;83;20961;-87
2023/01/12 05:45:31;;;;;;;11.67;5.20;;;;;;;-4.23;0.00;96806.69;1701451;83;21446;-87
2023/01/12 05:48:01;;;;;;;10.53;4.60;;;;;;;-4.24;0.00;96779.66;1730091;83;20990;-89
2023/01/12 05:50:31;;;;;;;8.98;4.40;;;;;;;-4.23;0.00;96811.91;1730202;81;20895;-85
2023/01/12 05:53:00;;;;;;;10.70;4.80;;;;;;;-4.24;0.00;96774.45;1725644;83;20978;-87
2023/01/12 05:55:28;;;;;;;9.70;4.78;;;;;;;-4.21;0.00;96839.25;1730295;83;20922;-85
2023/01/12 05:57:58;;;;;;;12.70;5.17;;;;;;;-4.20;0.00;96903.59;1701222;83;21009;-85
2023/01/12 06:00:30;;;;;;;11.83;3.98;;;;;;;-4.17;0.00;96964.05;1730191;83;20937;-86
2023/01/12 06:03:01;;;;;;;11.25;4.42;;;;;;;-4.14;0.00;97023.78;1729851;83;20942;-87
2023/01/12 06:05:29;;;;;;;12.23;4.55;;;;;;;-4.13;0.00;97044.83;1701088;83;21037;-87
2023/01/12 06:07:59;;;;;;;12.00;4.40;;;;;;;-4.12;0.00;97066.42;1730175;83;21418;-86
2023/01/12 06:10:27;;;;;;;7.47;5.12;;;;;;;-4.15;0.00;96985.94;1730415;83;20934;-87
2023/01/12 06:15:43;;;;;;;13.68;4.90;;;;;;;-4.17;0.00;96937.97;1729954;83;20982;-87
2023/01/12 06:18:13;;;;;;;9.23;4.50;;;;;;;-4.16;0.00;96985.72;1730064;83;20998;-87
2023/01/12 06:20:41;;;;;;;10.70;5.25;;;;;;;-4.16;0.00;96959.64;1730072;83;20969;-87
2023/01/12 06:23:10;;;;;;;9.80;4.42;;;;;;;-4.10;0.00;97099.13;1729925;83;20929;-87
2023/01/12 06:25:38;;;;;;;10.10;4.92;;;;;;;-4.03;0.00;97287.17;1725493;83;20997;-87
2023/01/12 06:28:07;;;;;;;11.57;4.70;;;;;;;-3.97;0.00;97452.27;1730083;83;20894;-87
2023/01/12 06:30:36;;;;;;;11.22;4.75;;;;;;;-3.94;0.00;97525.92;1730067;82;20958;-87
2023/01/12 06:33:06;;;;;;;9.35;4.22;;;;;;;-3.92;0.00;97569.47;1730070;82;20935;-87
2023/01/12 06:35:34;;;;;;;11.38;4.25;;;;;;;-3.92;0.00;97559.05;1730057;83;20994;-87
2023/01/12 06:38:02;;;;;;;11.63;4.60;;;;;;;-3.86;0.00;97727.86;1701683;83;21003;-87
2023/01/12 06:40:32;;;;;;;11.38;4.70;;;;;;;-3.76;0.00;97979.49;1701256;83;20997;-88
2023/01/12 06:43:01;;;;;;;12.82;4.95;;;;;;;-3.63;0.00;98312.38;1730166;82;20981;-87
2023/01/12 06:45:32;;;;;;;10.85;5.90;;;;;;;-3.52;0.00;98566.01;1729437;83;20990;-86
2023/01/12 06:48:06;;;;;;;10.93;4.80;;;;;;;-3.50;0.00;98642.91;1730150;83;21010;-86
2023/01/12 06:50:34;;;;;;;9.88;4.62;;;;;;;-3.41;0.00;98858.05;1729709;83;21066;-87
2023/01/12 06:53:04;;;;;;;9.13;5.12;;;;;;;-3.28;0.00;99198.67;1677823;83;20989;-86
2023/01/12 06:55:33;;;;;;;9.28;5.12;;;;;;;-3.16;0.00;99468.18;1701938;83;20961;-88
2023/01/12 06:58:05;;;;;;;12.18;5.28;;;;;;;-3.05;0.00;99726.67;1725686;83;20950;-89
2023/01/12 07:00:34;;;;;;;7.35;4.83;;;;;;;-2.94;0.00;99973.18;1729895;83;20914;-85
2023/01/12 07:03:06;;;;;;;8.50;5.00;;;;;;;-2.82;0.00;100242.20;1701101;83;21458;-87
2023/01/12 07:05:34;;;;;;;12.28;6.08;;;;;;;-2.75;0.00;100432.42;1729322;82;21022;-84
2023/01/12 07:08:05;;;;;;;8.13;5.25;;;;;;;-2.68;0.00;100555.77;1730401;81;21037;-87
2023/01/12 07:10:33;;;;;;;8.68;4.28;;;;;;;-2.60;0.00;100768.25;1730355;83;20969;-86
2023/01/12 07:20:52;;;;;;;9.88;4.53;;;;;;;-2.40;0.00;101185.91;1730327;83;20946;-85
2023/01/12 07:27:21;;;;;;;11.65;4.37;;;;;;;-2.29;0.00;101414.43;1730332;83;21434;-86
2023/01/12 07:29:51;;;;;;;7.25;4.00;;;;;;;-2.22;0.00;101571.42;1702326;83;20945;-85
2023/01/12 07:36:20;;;;;;;6.62;3.50;;;;;;;-2.15;0.00;101729.78;1730345;83;21449;-88
2023/01/12 07:42:47;;;;;;;11.10;3.70;;;;;;;-2.08;0.00;101874.66;1730316;83;20926;-86
2023/01/12 07:45:20;;;;;;;6.92;3.98;;;;;;;-2.04;0.00;101961.83;1705154;83;20950;-91
2023/01/12 07:51:49;;;;;;;8.88;3.50;;;;;;;-1.93;0.00;102175.61;1730326;83;20961;-86
2023/01/12 07:54:19;;;;;;;6.50;3.40;;;;;;;-1.91;0.00;102211.31;1725585;83;20982;-84
2023/01/12 07:56:53;;;;;;;6.78;3.27;;;;;;;-1.88;0.64;102253.35;1729675;82;21074;-88
2023/01/12 07:59:22;;;;;;;9.23;3.85;;;;;;;-1.96;0.00;102117.19;1728794;82;20974;-87
2023/01/12 08:01:53;;;;;;;7.37;2.77;;;;;;;-2.06;0.00;101884.40;1725984;81;20934;-88
2023/01/12 08:04:22;;;;;;;6.42;3.08;;;;;;;-2.04;0.00;101914.92;1702314;83;20899;-86
2023/01/12 08:06:52;;;;;;;7.80;2.90;;;;;;;-1.96;0.00;102106.78;1730190;83;20966;-88
2023/01/12 08:09:21;;;;;;;7.53;3.20;;;;;;;-1.89;0.00;102261.61;1701248;83;20985;-88
2023/01/12 08:11:50;;;;;;;3.85;2.35;;;;;;;-1.85;6.47;102344.67;1701940;83;21017;-86
2023/01/12 08:14:23;;;;;;;3.95;2.50;;;;;;;-1.78;16.89;102478.09;1730285;82;21430;-88
2023/01/12 08:17:00;;;;;;;6.35;2.92;;;;;;;-1.75;22.71;102552.52;1717027;82;21059;-86
2023/01/12 08:19:29;;;;;;;7.17;2.70;;;;;;;-1.72;26.92;102604.95;1710599;82;20963;-87
2023/01/12 08:22:01;;;;;;;7.03;2.67;;;;;;;-1.70;30.02;102633.66;1712314;83;21001;-92
2023/01/12 08:24:38;;;;;;;8.43;2.52;;;;;;;-1.68;32.60;102700.17;1712073;83;20915;-86
2023/01/12 08:27:09;;;;;;;5.00;2.58;;;;;;;-1.70;30.02;102654.48;1712342;82;21039;-87
2023/01/12 08:29:48;;;;;;;4.65;1.98;;;;;;;-1.63;40.44;102807.19;1715702;84;20936;-89
2023/01/12 08:32:17;;;;;;;7.95;2.47;;;;;;;-1.61;43.14;102843.85;1715825;84;20989;-87
2023/01/12 08:34:50;;;;;;;5.92;2.45;;;;;;;-1.58;48.82;102909.64;1712380;83;20935;-92
2023/01/12 08:37:22;;;;;;;3.75;2.35;;;;;;;-1.54;55.05;102978.19;1693167;84;20943;-86
2023/01/12 08:39:52;;;;;;;5.97;2.17;;;;;;;-1.51;59.22;103002.91;1712193;83;21002;-91
2023/01/12 08:42:23;;;;;;;4.72;2.12;;;;;;;-1.47;65.03;103087.03;1669994;84;20942;-86
2023/01/12 08:44:52;;;;;;;4.00;1.70;;;;;;;-1.40;76.91;103241.70;1712527;83;20936;-86
2023/01/12 08:47:27;;;;;;;6.75;3.10;;;;;;;-1.42;73.78;103218.88;1712192;84;20943;-91
2023/01/12 08:49:59;;;;;;;3.67;2.15;;;;;;;-1.31;91.59;103445.07;1712266;84;20942;-88
2023/01/12 08:52:28;;;;;;;5.03;2.67;;;;;;;-1.19;100.00;103679.51;1692782;84;20993;-92
2023/01/12 08:54:59;;;;;;;3.20;2.00;;;;;;;-1.14;100.00;103793.35;1712274;84;20979;-91
2023/01/12 08:57:33;;;;;;;7.95;2.45;;;;;;;-1.04;100.00;103992.05;1711878;81;20951;-88
2023/01/12 09:03:58;;;;;;;6.62;2.50;;;;;;;-1.02;100.00;104024.31;1665832;86;20987;-89
2023/01/12 09:10:26;;;;;;;6.05;2.15;;;;;;;-0.87;100.00;104308.13;1665821;86;20937;-87
2023/01/12 09:16:40;;;;;;;8.08;2.65;;;;;;;-0.78;100.00;104457.44;1669860;83;21015;-85
2023/01/12 09:19:11;;;;;;;5.78;2.25;;;;;;;-0.73;100.00;104560.92;1677160;85;21086;-89
2023/01/12 09:21:42;;;;;;;5.08;1.90;;;;;;;-0.67;100.00;104674.81;1677292;85;21007;-86
2023/01/12 09:28:09;;;;;;;4.20;1.55;;;;;;;-0.61;100.00;104778.16;1677438;85;20944;-86
2023/01/12 09:34:25;;;;;;;;;;;;;;;-0.61;100.00;104778.16;1679677;86;20920;-88
2023/01/12 09:36:55;;;;;;;6.08;1.95;;;;;;;-0.62;100.00;104757.66;1676353;84;20168;-86
2023/01/12 09:39:26;;;;;;;4.92;2.30;;;;;;;-0.68;100.00;104670.25;1677353;85;20964;-86
2023/01/12 09:48:44;;;;;;;6.62;2.50;;;;;;;-0.71;100.00;104607.86;1677397;85;20948;-87
2023/01/12 09:51:23;;;;;;;7.95;3.20;;;;;;;-0.73;100.00;104555.63;1677258;84;20991;-88
2023/01/12 09:58:22;;;;;;;7.62;3.00;;;;;;;-0.73;100.00;104555.63;1677485;85;20948;-88
2023/01/12 10:00:55;;;;;;;5.28;2.30;;;;;;;-0.77;100.00;104462.66;1657977;84;21096;-90
2023/01/12 10:03:37;;;;;;;8.70;3.67;;;;;;;-0.82;100.00;104353.18;1668145;86;21103;-85
2023/01/12 10:06:12;;;;;;;8.98;2.67;;;;;;;-0.84;100.00;104347.34;1646322;86;21005;-90
2023/01/12 10:08:44;;;;;;;5.05;2.20;;;;;;;-0.87;100.00;104279.67;1648218;85;20990;-90
2023/01/12 10:11:41;;;;;;;4.87;2.15;;;;;;;-0.82;100.00;104358.38;1670277;86;20998;-91
2023/01/12 10:14:34;;;;;;;7.65;2.75;;;;;;;-0.79;100.00;104425.77;1668270;86;20943;-90
2023/01/12 10:17:26;;;;;;;6.53;2.10;;;;;;;-0.79;100.00;104415.36;1668830;84;21544;-87
2023/01/12 10:20:26;;;;;;;7.28;1.82;;;;;;;-0.83;100.00;104352.65;1624828;86;21038;-87
2023/01/12 10:22:58;;;;;;;3.75;1.70;;;;;;;-0.89;100.00;104205.77;1675441;86;20966;-86
2023/01/12 10:25:49;;;;;;;8.10;2.60;;;;;;;-0.87;100.00;104258.85;1669121;86;21002;-86
2023/01/12 10:28:23;;;;;;;3.92;2.10;;;;;;;-0.90;100.00;104169.53;1671557;86;20950;-84
2023/01/12 10:34:17;;;;;;;3.05;1.62;;;;;;;-0.91;100.00;104153.67;1690246;85;21014;-94
2023/01/12 10:37:13;;;;;;;;;;;;;;;;;;;;;
2023/01/12 10:39:53;;;;;;;5.37;1.92;;;;;;;-0.86;100.00;104238.20;1693422;82;20957;-92
2023/01/12 10:45:42;;;;;;;3.80;1.92;;;;;;;-0.79;100.00;104342.49;1671214;85;21711;-89
2023/01/12 10:48:44;;;;;;;;;;;;;;;;;;;;;
2023/01/12 10:51:08;;;;;;;6.92;3.00;;;;;;;-0.69;100.00;104509.11;1652677;84;20986;-95
2023/01/12 10:54:17;;;;;;;5.15;2.77;;;;;;;-0.68;100.00;104519.33;1653402;86;21082;-92
2023/01/12 10:57:26;;;;;;;3.65;2.15;;;;;;;-0.68;100.00;104514.13;1627610;84;20992;-91
2023/01/12 11:00:09;;;;;;;5.60;2.10;;;;;;;-0.68;100.00;104514.13;1654832;85;21562;-93
2023/01/12 11:02:44;;;;;;;5.95;2.40;;;;;;;-0.67;100.00;104523.91;1702496;83;21131;-85
2023/01/12 11:09:26;;;;;;;6.70;2.70;;;;;;;-0.59;100.00;104641.78;1720644;83;21480;-85
2023/01/12 11:12:35;;;;;;;8.45;2.90;;;;;;;-0.54;100.00;104717.81;1720536;83;20979;-84
2023/01/12 11:15:20;;;;;;;4.75;2.20;;;;;;;-0.46;100.00;104844.45;1661739;85;20986;-84
2023/01/12 11:18:27;;;;;;;12.20;2.70;;;;;;;-0.33;100.00;105079.52;1660989;86;20963;-84
2023/01/12 11:21:02;;;;;;;7.65;2.90;;;;;;;-0.22;100.00;105271.97;1607438;87;20998;-84
2023/01/12 11:23:46;;;;;;;5.03;2.02;;;;;;;-0.17;100.00;105318.77;1607203;87;21010;-84
2023/01/12 11:26:28;;;;;;;5.67;1.85;;;;;;;-0.14;100.00;105351.99;1608209;88;20986;-84
2023/01/12 11:29:03;;;;;;;4.20;2.10;;;;;;;-0.13;100.00;105371.57;1607500;87;21007;-85
2023/01/12 11:31:39;;;;;;;6.00;2.60;;;;;;;-0.11;100.00;105400.66;1606966;89;20975;-85
2023/01/12 11:34:19;;;;;;;6.80;2.25;;;;;;;-0.07;100.00;105472.45;1606706;87;21034;-85
2023/01/12 11:36:56;;;;;;;5.53;2.47;;;;;;;-0.03;100.00;105545.64;1607257;89;21021;-88
2023/01/12 11:39:24;;;;;;;4.83;2.20;;;;;;;0.03;100.00;105672.25;1608617;87;21499;-85
2023/01/12 11:45:23;;;;;;;4.62;2.00;;;;;;;0.35;100.00;106144.00;1610395;87;21023;-90
2023/01/12 11:49:05;;;;;;;6.53;2.02;;;;;;;0.42;100.00;106248.67;1607328;89;20999;-85
2023/01/12 11:51:00;;;;;;;6.08;2.42;;;;;;;0.42;100.00;106235.98;1596052;88;21097;-85
2023/01/12 11:53:36;;;;;;;4.35;2.33;;;;;;;0.36;100.00;106126.23;1618789;89;20960;-87
2023/01/12 11:56:33;;;;;;;5.53;1.98;;;;;;;0.28;100.00;105975.27;1648914;83;20982;-88
2023/01/12 11:59:43;;;;;;;5.05;2.33;;;;;;;0.19;100.00;105832.44;1719051;83;21067;-85
2023/01/12 12:02:42;;;;;;;4.33;2.02;;;;;;;0.19;100.00;105816.85;1696032;83;21479;-86
2023/01/12 12:05:45;;;;;;;4.92;2.12;;;;;;;0.34;100.00;106052.23;1619163;87;21591;-93
2023/01/12 12:08:36;;;;;;;5.65;2.12;;;;;;;0.54;100.00;106365.52;1634828;88;21068;-91
2023/01/12 12:11:41;;;;;;;8.68;2.75;;;;;;;0.68;100.00;106556.75;1634779;88;21089;-92
2023/01/12 12:14:39;;;;;;;3.47;2.10;;;;;;;0.74;100.00;106649.45;1582033;91;20981;-85
2023/01/12 12:17:29;;;;;;;9.30;2.85;;;;;;;0.80;100.00;106729.19;1486493;97;21063;-85
2023/01/12 12:20:18;;;;;;;5.87;2.27;;;;;;;0.82;100.00;106764.61;1468537;97;21026;-85
2023/01/12 12:23:09;;;;;;;4.75;2.02;;;;;;;0.72;100.00;106587.34;1468772;97;21029;-85
2023/01/12 12:26:07;;;;;;;7.70;2.37;;;;;;;0.71;100.00;106564.24;1486504;97;21014;-85
2023/01/12 12:29:15;;;;;;;6.28;2.20;;;;;;;0.63;100.00;106455.52;1486339;94;21066;-86
2023/01/12 12:32:35;;;;;;;6.33;2.45;;;;;;;0.56;100.00;106318.88;1486598;97;21063;-86
2023/01/12 12:35:33;;;;;;;4.62;2.35;;;;;;;0.58;100.00;106350.46;1486607;96;21062;-86
2023/01/12 12:38:27;;;;;;;7.20;2.85;;;;;;;0.57;100.00;106300.72;1486521;97;21014;-86
2023/01/12 12:47:29;;;;;;;4.75;2.33;;;;;;;0.50;100.00;106187.33;1585460;90;21054;-86
2023/01/12 12:50:01;;;;;;;8.10;2.58;;;;;;;0.43;100.00;106083.80;1560980;89;21042;-83
2023/01/12 12:52:36;;;;;;;6.05;2.35;;;;;;;0.35;100.00;105925.78;1605060;89;21017;-85
2023/01/12 12:55:10;;;;;;;7.50;2.83;;;;;;;0.28;100.00;105824.59;1627640;86;20966;-87
2023/01/12 12:58:04;;;;;;;8.48;3.58;;;;;;;0.30;100.00;105852.45;1663615;86;21451;-83
2023/01/12 13:00:41;;;;;;;7.62;2.80;;;;;;;0.35;100.00;105905.02;1663790;86;20978;-85
2023/01/12 13:03:06;;;;;;;6.78;3.17;;;;;;;0.41;100.00;106001.22;1662711;86;21065;-85
2023/01/12 13:05:49;;;;;;;6.97;3.00;;;;;;;0.39;100.00;105974.55;1663593;86;20970;-83
2023/01/12 13:08:23;;;;;;;8.10;2.65;;;;;;;0.30;100.00;105826.48;1640951;86;20947;-83
2023/01/12 13:10:54;;;;;;;4.50;2.40;;;;;;;0.22;100.00;105686.91;1640869;86;21030;-83
2023/01/12 13:13:29;;;;;;;6.22;3.10;;;;;;;0.13;100.00;105536.23;1640830;86;20986;-84
2023/01/12 13:16:17;;;;;;;5.97;2.27;;;;;;;0.08;100.00;105420.81;1639818;86;20998;-85
2023/01/12 13:18:56;;;;;;;7.78;2.58;;;;;;;0.10;100.00;105489.00;1585238;89;21042;-85
2023/01/12 13:21:57;;;;;;;5.78;2.67;;;;;;;0.10;100.00;105478.61;1554499;91;21018;-84
2023/01/12 13:24:40;;;;;;;4.12;2.40;;;;;;;0.02;100.00;105309.95;1585331;90;21042;-84
2023/01/12 13:27:54;;;;;;;5.33;2.45;;;;;;;-0.08;100.00;105121.66;1566587;90;21579;-86
2023/01/12 13:30:31;;;;;;;5.95;2.60;;;;;;;-0.19;100.00;104941.55;1588418;90;21077;-87
2023/01/12 13:33:25;;;;;;;4.78;2.42;;;;;;;-0.22;100.00;104887.23;1568184;90;21077;-86
2023/01/12 13:36:04;;;;;;;4.60;2.30;;;;;;;-0.26;100.00;104787.55;1586040;90;21559;-85
2023/01/12 13:38:42;;;;;;;6.83;2.67;;;;;;;-0.28;100.00;104768.66;1585298;90;21561;-84
2023/01/12 13:44:32;;;;;;;2.87;2.02;;;;;;;-0.34;100.00;104653.96;1588509;90;21017;-86
2023/01/12 13:47:17;;;;;;;6.33;3.02;;;;;;;-0.31;100.00;104662.21;1586878;89;21054;-86
2023/01/12 13:50:10;;;;;;;;;;;;;;;;;;;;;
2023/01/12 13:52:46;;;;;;;4.83;2.58;;;;;;;-0.23;100.00;104794.30;1610203;87;21566;-86
2023/01/12 13:55:27;;;;;;;11.40;4.30;;;;;;;-0.23;100.00;104794.30;1625792;86;21542;-85
2023/01/12 13:58:16;;;;;;;7.50;3.25;;;;;;;-0.26;100.00;104745.95;1663129;86;20994;-85
2023/01/12 14:01:00;;;;;;;10.50;4.40;;;;;;;-0.38;100.00;104542.34;1663278;86;20974;-84
2023/01/12 14:03:39;;;;;;;8.40;3.20;;;;;;;-0.45;100.00;104386.20;1645691;86;21063;-85
2023/01/12 14:10:46;;;;;;;6.60;3.20;;;;;;;-0.52;100.00;104233.20;1622924;87;20983;-83
2023/01/12 14:20:35;;;;;;;9.80;2.98;;;;;;;-0.74;100.00;103797.06;1479833;94;21046;-83
2023/01/12 14:23:38;;;;;;;7.97;2.67;;;;;;;-0.73;100.00;103780.55;1479225;96;21082;-83
2023/01/12 14:26:13;;;;;;;;;;;;;;;-0.74;100.00;103760.66;1449112;99;21565;-84
2023/01/12 14:29:03;;;;;;;6.92;3.05;;;;;;;-0.80;100.00;103645.77;1454905;99;20113;-84
2023/01/12 14:31:56;;;;;;;6.37;3.00;;;;;;;-0.85;100.00;103545.95;1474079;95;21026;-84
2023/01/12 14:34:35;;;;;;;9.85;3.35;;;;;;;-0.86;100.00;103535.83;1493578;95;21017;-84
2023/01/12 14:37:11;;;;;;;6.70;2.70;;;;;;;-0.95;100.00;103345.06;1459475;98;21061;-85
2023/01/12 14:39:53;;;;;;;12.05;3.60;;;;;;;-0.97;100.00;103287.97;1448434;98;21078;-84
2023/01/12 14:48:41;;;;;;;5.70;2.83;;;;;;;-0.94;100.00;103335.44;1449049;99;21543;-84
2023/01/12 14:54:15;;;;;;;7.62;2.87;;;;;;;-0.90;100.00;103409.91;1533931;90;20978;-84
2023/01/12 14:56:58;;;;;;;8.53;2.95;;;;;;;-0.87;100.00;103488.83;1602258;90;21019;-84
2023/01/12 14:59:34;;;;;;;7.08;2.75;;;;;;;-0.84;100.00;103540.91;1583208;91;21051;-84
2023/01/12 15:02:19;;;;;;;7.72;3.00;;;;;;;-0.78;100.00;103630.27;1572341;87;21494;-83
2023/01/12 15:05:08;;;;;;;9.08;3.70;;;;;;;-0.73;100.00;103728.56;1638932;87;21454;-84
2023/01/12 15:29:32;;;;;;;7.62;2.50;;;;;;;-0.57;100.00;104027.41;1512626;95;21006;-83
2023/01/12 15:32:06;;;;;;;8.73;2.60;;;;;;;-0.57;100.00;104022.19;1510433;94;21514;-83
2023/01/12 15:34:38;;;;;;;4.72;2.08;;;;;;;-0.58;100.00;103970.52;1512601;95;21014;-83
2023/01/12 15:37:31;;;;;;;8.60;2.70;;;;;;;-0.57;100.00;103990.95;1512639;95;21043;-82
2023/01/12 15:47:19;;;;;;;3.95;2.37;;;;;;;-0.57;100.00;103949.36;1406085;97;21136;-82
2023/01/12 15:59:40;;;;;;;7.35;2.90;;;;;;;-0.57;100.00;103970.22;1403207;101;21629;-83
2023/01/12 16:05:38;;;;;;;5.00;2.05;;;;;;;-0.62;100.00;103852.62;1345452;105;21107;-82
2023/01/12 16:08:37;;;;;;;6.47;2.75;;;;;;;-0.65;100.00;103795.73;1330842;107;21548;-83
2023/01/12 16:11:13;;;;;;;6.03;2.50;;;;;;;-0.65;100.00;103790.55;1344935;107;21103;-81
2023/01/12 16:21:06;;;;;;;5.65;2.67;;;;;;;-0.65;100.00;103774.95;1373583;103;21140;-83
2023/01/12 16:26:09;;;;;;;6.65;2.22;;;;;;;-0.71;100.00;103671.53;1344034;106;21517;-83
2023/01/12 16:33:40;;;;;;;;;;;;;;;;;;;;;
2023/01/12 16:36:33;;;;;;;5.60;2.42;;;;;;;-0.72;100.00;103630.03;1346449;105;21554;-82
2023/01/12 16:39:21;;;;;;;6.30;2.45;;;;;;;-0.72;100.00;103614.44;1306729;109;21698;-82
2023/01/12 16:42:29;;;;;;;;;;;;;;;;;;;;;
2023/01/12 16:44:58;;;;;;;6.77;2.60;;;;;;;-0.70;100.00;103655.81;1266510;112;21225;-82
2023/01/12 16:47:40;;;;;;;6.45;2.62;;;;;;;-0.71;100.00;103650.74;1211781;118;21113;-82
2023/01/12 16:50:32;;;;;;;4.72;2.50;;;;;;;-0.69;100.00;103697.70;1208893;118;21154;-82
2023/01/12 16:53:10;;;;;;;4.58;2.30;;;;;;;-0.65;100.00;103743.77;1284742;109;21191;-82
2023/01/12 16:56:01;;;;;;;;;;;;;;;;;;;;;
2023/01/12 17:11:58;;;;;;;4.55;2.05;;;;;;;-0.65;100.00;103748.95;1237318;116;21072;-82
2023/01/12 17:14:40;;;;;;;6.90;2.67;;;;;;;-0.63;100.00;103805.67;1239249;114;21677;-83
2023/01/12 17:17:44;;;;;;;;;;;;;;;;;;;;;
2023/01/12 17:20:23;;;;;;;6.97;2.52;;;;;;;-0.56;100.00;103938.63;1260534;111;21675;-82
2023/01/12 17:26:56;;;;;;;5.00;2.58;;;;;;;-0.58;100.00;103856.14;1331431;105;21094;-81
2023/01/12 17:39:46;;;;;;;;;;;;;;;-0.49;100.00;104029.37;1414179;99;21535;-82
2023/01/12 17:45:05;;;;;;;5.95;2.47;;;;;;;-0.45;100.00;104110.39;1410410;102;21122;-81
2023/01/12 17:51:33;;;;;;;6.15;2.30;;;;;;;-0.43;100.00;104120.27;1456911;98;21051;-82
2023/01/12 18:01:58;;;;;;;5.85;3.42;;;;;;;-0.39;100.00;104225.59;1452684;99;21075;-81
2023/01/12 18:07:38;;;;;;;3.75;1.95;;;;;;;-0.41;100.00;104175.04;1479768;96;21151;-83
2023/01/12 18:14:20;;;;;;;5.35;2.33;;;;;;;-0.42;100.00;104138.92;1598379;88;20974;-82
2023/01/12 18:16:44;;;;;;;4.12;2.12;;;;;;;-0.43;100.00;104130.67;1668187;83;21474;-83
2023/01/12 18:19:13;;;;;;;5.75;2.12;;;;;;;-0.40;100.00;104210.72;1662634;86;21074;-83
2023/01/12 18:21:42;;;;;;;6.00;3.20;;;;;;;-0.40;100.00;104184.72;1720332;83;20939;-82
2023/01/12 18:24:11;;;;;;;2.95;1.80;;;;;;;-0.40;100.00;104195.13;1672223;83;20963;-84
2023/01/12 18:30:41;;;;;;;3.15;1.80;;;;;;;-0.37;100.00;104229.70;1720686;83;20967;-81
2023/01/12 18:33:11;;;;;;;5.42;2.58;;;;;;;-0.36;100.00;104244.53;1720701;83;21483;-82
2023/01/12 18:35:40;;;;;;;4.42;2.10;;;;;;;-0.37;100.00;104229.70;1720914;83;20943;-83
2023/01/12 18:38:10;;;;;;;4.55;1.72;;;;;;;-0.39;100.00;104189.21;1696433;83;20947;-83
2023/01/12 18:40:41;;;;;;;5.37;1.98;;;;;;;-0.37;100.00;104224.52;1696197;83;21455;-82
2023/01/12 18:43:13;;;;;;;3.80;2.10;;;;;;;-0.37;100.00;104224.52;1716801;83;21042;-82
2023/01/12 18:45:46;;;;;;;4.08;1.87;;;;;;;-0.36;100.00;104239.34;1720640;83;20943;-82
2023/01/12 18:48:20;;;;;;;4.92;2.30;;;;;;;-0.35;100.00;104269.73;1698181;83;20995;-81
2023/01/12 18:53:42;;;;;;;4.65;1.98;;;;;;;-0.31;100.00;104324.37;1699080;83;21491;-80
2023/01/12 18:56:13;;;;;;;3.70;1.67;;;;;;;-0.32;100.00;104319.62;1719244;83;20960;-81
2023/01/12 18:58:47;;;;;;;3.12;2.02;;;;;;;-0.31;100.00;104329.59;1720606;83;20999;-82